Main page
METAR-TAF:

METAR-TAF

Airports :

Antananarivo, Madagascar

Ivato International Airport

latitude: 18-48S, longitude: 047-29E, elevation: 1279 m

Current weather observation

The report was made 39 minutes ago, at 02:30 UTC
Wind 1 kt from the Southeast
Temperature 16°C
Humidity 94%
Pressure 1021 hPa
Visibility 10 km or more
Few clouds at a height of 1700 ft

METAR: FMMI 190230Z 14001KT 9999 FEW017 16/15 Q1021 NOSIG

Time: 06:09 (03:09 UTC)

Forecast

The report was made 4 hours and 9 minutes ago, at 23:00 UTC
Forecast valid from 19 at 00 UTC to 20 at 06 UTC
Wind 8 kt from the Southeast
Visibility 10 km or more
Scattered clouds at a height of 1700 ft
Scattered clouds at a height of 2000 ft
Probability 30% :
Temporary
from 19 at 15 UTC to 20 at 03 UTC
Visibility: 4000 m
Scattered clouds at a height of 1700 ft, Cumulonimbus.
Broken clouds at a height of 2000 ft
thunderstorm, rain

TAF: FMMI 182300Z 1900/2006 14008KT 9999 SCT017 SCT020 PROB30 TEMPO 1915/2003 4000 TSRA SCT017CB BKN020

Weather observations and forecasts of more than 4000 airports (METAR and TAF reports).

The available stations are represented by yellow and red dots on the map.

Hover mouse over dot to see the name of the station.

Then click to see weather observations and forecasts.

To change the map : click on the green buttons with a black cross to zoom in, on the green button with a dash to zoom out, or on the green arrows for adjacent maps.


METAR-TAF: